Time;durP1;ratioP1;P1;durP2;ratioP2;P2;SDS_P1;SDS_P2;PMS_P1;PMS_P2;Temp;Humidity;BMP_temperature;BMP_pressure;BME280_temperature;BME280_humidity;BME280_pressure;Samples;Min_cycle;Max_cycle;Signal;HPM_P1;HPM_P2
2021/01/19 00:03:51;;;;;;;4.95;1.87;;;5.00;99.90;;;;;;6623846;89;20781;-74
2021/01/19 00:13:51;;;;;;;5.40;1.90;;;5.20;99.90;;;;;;6622498;89;20186;-75
2021/01/19 00:23:52;;;;;;;7.15;1.45;;;5.20;99.90;;;;;;6620264;89;20244;-74
2021/01/19 00:33:52;;;;;;;5.35;1.62;;;5.30;99.90;;;;;;6615944;89;20223;-75
2021/01/19 00:43:53;;;;;;;5.60;1.42;;;5.30;99.90;;;;;;6621908;89;20190;-74
2021/01/19 00:53:54;;;;;;;6.43;1.45;;;5.30;99.90;;;;;;6627494;88;20213;-74
2021/01/19 01:03:54;;;;;;;4.65;1.70;;;5.20;99.90;;;;;;6623575;89;20671;-74
2021/01/19 01:13:55;;;;;;;3.50;1.40;;;5.20;99.90;;;;;;6630464;89;20321;-74
2021/01/19 01:23:55;;;;;;;3.90;1.60;;;5.00;99.90;;;;;;6618843;89;20199;-74
2021/01/19 01:33:56;;;;;;;10.15;1.40;;;5.10;99.90;;;;;;6636748;88;20662;-75
2021/01/19 01:43:57;;;;;;;4.80;1.40;;;5.10;99.90;;;;;;6626091;88;21044;-74
2021/01/19 01:54:00;;;;;;;4.82;0.88;;;5.10;99.90;;;;;;6621022;89;20209;-74
2021/01/19 02:04:00;;;;;;;4.55;1.08;;;5.00;99.90;;;;;;6624955;89;20239;-75
2021/01/19 02:14:15;;;;;;;5.85;1.17;;;5.00;99.90;;;;;;6616681;89;20290;-76
2021/01/19 02:24:38;;;;;;;5.85;1.40;;;4.90;99.90;;;;;;6612299;89;20170;-75
2021/01/19 02:34:56;;;;;;;4.43;1.00;;;4.80;99.90;;;;;;6615698;88;20310;-74
2021/01/19 02:44:59;;;;;;;4.15;0.88;;;4.80;99.90;;;;;;6633623;89;20193;-75
2021/01/19 02:55:02;;;;;;;6.68;1.87;;;4.70;99.90;;;;;;6618854;89;20323;-76
2021/01/19 03:05:05;;;;;;;4.28;1.00;;;4.60;99.90;;;;;;6623928;89;20243;-75
2021/01/19 03:15:06;;;;;;;5.87;1.23;;;4.60;99.90;;;;;;6618206;89;20673;-76
2021/01/19 03:25:07;;;;;;;8.98;1.95;;;4.40;99.90;;;;;;6624557;89;20243;-75
2021/01/19 03:35:08;;;;;;;6.10;1.20;;;4.50;99.90;;;;;;6626165;89;20315;-75
2021/01/19 03:45:09;;;;;;;5.80;1.30;;;4.40;99.90;;;;;;6617199;89;20186;-75
2021/01/19 03:55:10;;;;;;;7.53;1.20;;;4.40;99.90;;;;;;6611917;89;20174;-76
2021/01/19 04:05:11;;;;;;;4.80;1.10;;;4.50;99.90;;;;;;6622139;89;20305;-76
2021/01/19 04:15:12;;;;;;;5.43;1.15;;;4.60;99.90;;;;;;6624944;89;20341;-75
2021/01/19 04:25:12;;;;;;;6.72;1.33;;;4.60;99.90;;;;;;6619762;89;20645;-75
2021/01/19 04:35:13;;;;;;;4.85;1.12;;;4.60;99.90;;;;;;6629354;88;20266;-75
2021/01/19 04:45:14;;;;;;;5.00;1.50;;;4.60;99.90;;;;;;6625463;89;20766;-75
2021/01/19 04:55:26;;;;;;;4.30;0.95;;;4.60;99.90;;;;;;6621875;89;20320;-76
2021/01/19 05:05:36;;;;;;;6.15;1.27;;;4.70;99.90;;;;;;6615707;89;20211;-76
2021/01/19 05:15:47;;;;;;;8.05;1.42;;;4.80;99.90;;;;;;6621780;88;20181;-76
2021/01/19 05:25:58;;;;;;;6.57;1.30;;;4.60;99.90;;;;;;6624032;88;20210;-76
2021/01/19 05:36:12;;;;;;;7.35;1.15;;;4.60;99.90;;;;;;6618359;89;20185;-76
2021/01/19 05:46:22;;;;;;;5.90;1.23;;;4.50;99.90;;;;;;6621103;89;20185;-75
2021/01/19 05:57:03;;;;;;;6.22;1.37;;;4.60;99.90;;;;;;6691419;77;20207;-76
2021/01/19 06:07:04;;;;;;;8.88;1.30;;;4.80;99.90;;;;;;6640999;89;20207;-76
2021/01/19 06:17:16;;;;;;;3.67;1.17;;;4.80;99.90;;;;;;6657392;88;20724;-76
2021/01/19 06:27:22;;;;;;;3.67;0.95;;;4.90;99.90;;;;;;6633898;88;20199;-75
2021/01/19 06:37:32;;;;;;;1.90;0.62;;;5.00;99.90;;;;;;6635049;88;20641;-75
2021/01/19 06:47:40;;;;;;;2.67;1.08;;;5.10;99.90;;;;;;6648470;88;20260;-76
2021/01/19 06:57:56;;;;;;;3.00;0.80;;;5.10;99.90;;;;;;6632685;89;20672;-75
2021/01/19 07:08:12;;;;;;;1.87;0.70;;;5.20;99.90;;;;;;6628329;89;20609;-75
2021/01/19 07:18:32;;;;;;;3.63;0.93;;;5.30;99.90;;;;;;6629307;89;20310;-74
2021/01/19 07:28:32;;;;;;;2.80;0.90;;;5.20;99.90;;;;;;6631672;89;20201;-77
2021/01/19 07:38:33;;;;;;;2.92;0.80;;;5.30;99.90;;;;;;6632744;89;20195;-75
2021/01/19 07:48:37;;;;;;;2.97;0.80;;;5.30;99.90;;;;;;6625889;89;20575;-75
2021/01/19 07:58:38;;;;;;;3.35;1.02;;;5.40;99.90;;;;;;6630165;89;20684;-74
2021/01/19 08:08:39;;;;;;;2.20;0.60;;;5.40;99.90;;;;;;6629673;89;20319;-74
2021/01/19 08:18:41;;;;;;;2.72;0.45;;;5.30;99.90;;;;;;6631458;89;20264;-74
2021/01/19 08:28:42;;;;;;;2.78;0.50;;;5.30;99.90;;;;;;6629188;89;20190;-74
2021/01/19 08:38:47;;;;;;;0.80;0.30;;;5.10;99.90;;;;;;6625734;89;20217;-74
2021/01/19 08:48:51;;;;;;;1.87;0.55;;;4.90;99.90;;;;;;6632102;89;20198;-75
2021/01/19 08:58:52;;;;;;;1.75;0.50;;;4.70;99.90;;;;;;6636870;88;20178;-75
2021/01/19 09:09:01;;;;;;;1.58;0.52;;;4.60;99.90;;;;;;6630624;89;20703;-75
2021/01/19 09:19:07;;;;;;;1.27;0.40;;;4.40;99.90;;;;;;6627079;89;20182;-75
2021/01/19 09:29:08;;;;;;;2.90;0.40;;;4.30;99.90;;;;;;6630277;89;20197;-75
2021/01/19 09:39:08;;;;;;;1.35;0.50;;;4.30;99.90;;;;;;6630431;89;20296;-75
2021/01/19 09:49:09;;;;;;;1.70;0.37;;;4.40;99.90;;;;;;6634995;89;20216;-76
2021/01/19 09:59:09;;;;;;;2.28;0.50;;;4.50;99.90;;;;;;6644183;88;20554;-76
2021/01/19 10:09:20;;;;;;;1.12;0.30;;;4.60;99.90;;;;;;6626884;89;20718;-76
2021/01/19 10:19:22;;;;;;;1.02;0.28;;;5.00;99.90;;;;;;6628305;89;20215;-76
2021/01/19 10:29:23;;;;;;;1.27;0.25;;;4.80;99.90;;;;;;6628809;89;20288;-75
2021/01/19 10:39:25;;;;;;;1.05;0.35;;;4.90;99.90;;;;;;6630524;89;20370;-77
2021/01/19 10:49:30;;;;;;;1.30;0.30;;;5.00;99.90;;;;;;6624384;89;20190;-76
2021/01/19 10:59:31;;;;;;;0.95;0.40;;;5.20;99.90;;;;;;6628048;88;20222;-77
2021/01/19 11:09:33;;;;;;;0.70;0.20;;;5.30;99.90;;;;;;6624434;89;20186;-76
2021/01/19 11:19:33;;;;;;;0.50;0.20;;;5.70;99.90;;;;;;6623565;89;20208;-76
2021/01/19 11:29:34;;;;;;;0.50;0.30;;;6.20;99.90;;;;;;6620898;89;20717;-76
2021/01/19 11:39:34;;;;;;;0.85;0.20;;;6.60;99.90;;;;;;6623351;89;20352;-76
2021/01/19 11:49:35;;;;;;;0.40;0.10;;;6.80;99.90;;;;;;6623142;89;20268;-76
2021/01/19 11:59:35;;;;;;;0.20;0.10;;;6.90;99.90;;;;;;6630753;89;20615;-76
2021/01/19 12:09:36;;;;;;;0.82;0.20;;;7.00;99.90;;;;;;6621875;89;20748;-76
2021/01/19 12:19:36;;;;;;;0.60;0.15;;;7.20;99.90;;;;;;6630598;89;20783;-76
2021/01/19 12:29:38;;;;;;;0.40;0.10;;;7.10;99.90;;;;;;6632514;89;20241;-76
2021/01/19 12:39:38;;;;;;;2.65;0.20;;;7.30;99.90;;;;;;6626901;89;20185;-76
2021/01/19 12:49:39;;;;;;;0.73;0.20;;;7.20;99.90;;;;;;6619472;89;20197;-75
2021/01/19 12:59:43;;;;;;;0.40;0.17;;;7.30;99.90;;;;;;6620553;88;20185;-75
2021/01/19 13:09:43;;;;;;;0.40;0.13;;;7.40;99.90;;;;;;6623321;89;20207;-76
2021/01/19 13:19:44;;;;;;;0.47;0.20;;;7.60;99.90;;;;;;6623308;89;20443;-76
2021/01/19 13:29:45;;;;;;;0.55;0.13;;;7.70;99.90;;;;;;6631973;89;20208;-77
2021/01/19 13:39:46;;;;;;;0.40;0.20;;;7.70;99.90;;;;;;6633784;88;20381;-76
2021/01/19 13:49:46;;;;;;;0.57;0.20;;;7.90;99.90;;;;;;6630441;88;20232;-76
2021/01/19 13:59:47;;;;;;;0.82;0.20;;;7.80;99.90;;;;;;6626193;88;20250;-76
2021/01/19 14:09:47;;;;;;;0.17;0.10;;;8.00;99.90;;;;;;6621123;88;20231;-76
2021/01/19 14:19:48;;;;;;;0.35;0.10;;;8.10;99.90;;;;;;6626186;89;20256;-76
2021/01/19 14:29:49;;;;;;;0.47;0.30;;;8.00;99.90;;;;;;6635902;88;20211;-76
2021/01/19 14:39:49;;;;;;;0.32;0.10;;;8.10;99.90;;;;;;6624537;89;20217;-76
2021/01/19 14:49:50;;;;;;;1.45;0.20;;;8.20;99.90;;;;;;6692342;77;20446;-75
2021/01/19 14:59:51;;;;;;;0.68;0.20;;;8.20;99.90;;;;;;6746001;87;20226;-75
2021/01/19 15:09:53;;;;;;;0.33;0.13;;;8.20;99.90;;;;;;6743694;88;20256;-74
2021/01/19 15:19:54;;;;;;;1.00;0.30;;;8.00;99.90;;;;;;6747132;88;21090;-76
2021/01/19 15:29:55;;;;;;;0.80;0.30;;;8.00;99.90;;;;;;6744602;87;20271;-75
2021/01/19 15:39:55;;;;;;;1.67;0.27;;;7.80;99.90;;;;;;6744196;88;20192;-76
2021/01/19 15:49:56;;;;;;;1.10;0.50;;;7.70;99.90;;;;;;6747217;88;20599;-75
2021/01/19 15:59:56;;;;;;;0.90;0.40;;;7.50;99.90;;;;;;6748201;87;20653;-75
2021/01/19 16:09:57;;;;;;;1.33;0.57;;;7.50;99.90;;;;;;6749227;88;20214;-75
2021/01/19 16:19:59;;;;;;;1.40;0.60;;;7.50;99.90;;;;;;6748670;87;20576;-75
2021/01/19 16:30:00;;;;;;;1.30;0.60;;;7.50;99.90;;;;;;6749387;87;20229;-75
2021/01/19 16:40:01;;;;;;;2.12;0.70;;;7.40;99.90;;;;;;6753712;87;20277;-75
2021/01/19 16:50:02;;;;;;;5.15;0.60;;;7.40;99.90;;;;;;6751104;87;20192;-75
2021/01/19 17:00:06;;;;;;;1.02;0.50;;;7.20;99.90;;;;;;6751829;87;21046;-75
2021/01/19 17:10:07;;;;;;;1.40;0.70;;;6.90;99.90;;;;;;6750153;88;20232;-73
2021/01/19 17:20:08;;;;;;;2.97;1.23;;;6.60;99.90;;;;;;6753730;87;20741;-75
2021/01/19 17:30:10;;;;;;;2.40;0.90;;;6.40;99.90;;;;;;6752378;88;20216;-76
2021/01/19 17:40:11;;;;;;;2.25;0.90;;;6.50;99.90;;;;;;6744930;88;20217;-76
2021/01/19 17:50:11;;;;;;;2.22;0.98;;;6.40;99.90;;;;;;6755643;88;20319;-74
2021/01/19 18:00:15;;;;;;;2.30;1.02;;;6.40;99.90;;;;;;6760618;88;20188;-78
2021/01/19 18:10:15;;;;;;;2.25;0.90;;;6.40;99.90;;;;;;6747878;87;20287;-75
2021/01/19 18:20:16;;;;;;;2.35;0.82;;;6.50;99.90;;;;;;6749622;88;20183;-74
2021/01/19 18:30:17;;;;;;;1.70;1.00;;;6.30;99.90;;;;;;6750461;88;20329;-75
2021/01/19 18:40:18;;;;;;;1.50;0.70;;;6.10;99.90;;;;;;6753398;88;20198;-72
2021/01/19 18:50:18;;;;;;;1.80;1.00;;;6.10;99.90;;;;;;6754530;87;20608;-74
2021/01/19 19:00:19;;;;;;;1.90;1.00;;;6.20;99.90;;;;;;6744822;88;20381;-73
2021/01/19 19:10:20;;;;;;;2.08;0.90;;;6.20;99.90;;;;;;6755728;87;20711;-74
2021/01/19 19:20:20;;;;;;;2.95;1.08;;;6.10;99.90;;;;;;6757143;87;20192;-74
2021/01/19 19:30:21;;;;;;;3.35;1.20;;;6.00;99.90;;;;;;6762428;87;20680;-74
2021/01/19 19:40:21;;;;;;;4.82;1.45;;;6.00;99.90;;;;;;6761743;87;20198;-74
2021/01/19 19:50:22;;;;;;;4.70;1.95;;;5.90;99.90;;;;;;6747076;87;20750;-73
2021/01/19 20:00:23;;;;;;;4.40;1.60;;;5.90;99.90;;;;;;6757458;87;20202;-74
2021/01/19 20:10:23;;;;;;;5.45;2.12;;;5.80;99.90;;;;;;6759381;88;20913;-73
2021/01/19 20:20:24;;;;;;;6.10;1.95;;;5.80;99.90;;;;;;6743955;88;20222;-73
2021/01/19 20:30:25;;;;;;;8.07;2.17;;;5.70;99.90;;;;;;6743087;88;20342;-74
2021/01/19 20:40:25;;;;;;;6.50;2.30;;;5.80;99.90;;;;;;6751339;87;20193;-73
2021/01/19 20:50:26;;;;;;;4.82;2.28;;;5.80;99.90;;;;;;6744202;76;20309;-76
2021/01/19 21:00:26;;;;;;;5.43;1.95;;;5.80;99.90;;;;;;6720817;88;20231;-76
2021/01/19 21:10:27;;;;;;;5.53;2.17;;;6.00;99.90;;;;;;6715240;88;20292;-73
2021/01/19 21:20:28;;;;;;;6.78;1.98;;;5.90;99.90;;;;;;6722477;88;20190;-73
2021/01/19 21:30:28;;;;;;;6.68;1.90;;;5.70;99.90;;;;;;6720482;88;20194;-76
2021/01/19 21:40:29;;;;;;;3.97;1.83;;;5.90;99.90;;;;;;6720317;88;20532;-76
2021/01/19 21:50:29;;;;;;;5.93;1.80;;;5.70;99.90;;;;;;6719977;88;20527;-74
2021/01/19 22:00:30;;;;;;;6.57;2.12;;;5.70;99.90;;;;;;6723315;88;20214;-74
2021/01/19 22:10:31;;;;;;;5.25;1.92;;;5.70;99.90;;;;;;6714737;88;20270;-73
2021/01/19 22:20:31;;;;;;;5.10;1.67;;;5.50;99.90;;;;;;6713340;88;20197;-73
2021/01/19 22:30:32;;;;;;;7.80;1.62;;;5.60;99.90;;;;;;6719558;88;20601;-73
2021/01/19 22:40:32;;;;;;;2.78;1.17;;;5.70;99.90;;;;;;6721515;88;20614;-73
2021/01/19 22:50:33;;;;;;;7.12;1.73;;;5.70;99.90;;;;;;6732174;88;20716;-74
2021/01/19 23:00:34;;;;;;;3.85;1.55;;;5.70;99.90;;;;;;6724106;88;20223;-73
2021/01/19 23:10:34;;;;;;;5.03;1.50;;;5.70;99.90;;;;;;6730589;88;20321;-74
2021/01/19 23:20:36;;;;;;;6.70;1.60;;;5.70;99.90;;;;;;6734570;88;20189;-74
2021/01/19 23:30:36;;;;;;;4.87;1.50;;;5.70;99.90;;;;;;6722396;88;20344;-73
2021/01/19 23:40:37;;;;;;;4.65;1.40;;;5.60;99.90;;;;;;6716431;88;20261;-73
2021/01/19 23:50:37;;;;;;;2.62;1.27;;;5.60;99.90;;;;;;6725506;88;20243;-73
